createdAt,value
2023-04-16T00:02:07.176Z,2.45
2023-04-16T00:04:34.589Z,2.55
2023-04-16T00:07:01.989Z,3.13
2023-04-16T00:09:29.371Z,2.80
2023-04-16T00:11:56.619Z,3.22
2023-04-16T00:14:24.066Z,2.45
2023-04-16T00:16:51.351Z,2.40
2023-04-16T00:19:18.786Z,2.83
2023-04-16T00:21:45.947Z,3.27
2023-04-16T00:24:13.132Z,2.38
2023-04-16T00:26:41.151Z,2.60
2023-04-16T00:29:08.737Z,2.90
2023-04-16T00:31:36.390Z,2.80
2023-04-16T00:34:03.943Z,2.90
2023-04-16T00:36:30.915Z,2.70
2023-04-16T00:38:58.377Z,2.97
2023-04-16T00:41:26.805Z,2.63
2023-04-16T00:43:54.170Z,2.58
2023-04-16T00:46:23.296Z,2.47
2023-04-16T00:48:52.650Z,2.72
2023-04-16T00:51:21.589Z,2.67
2023-04-16T00:53:48.626Z,2.83
2023-04-16T00:56:17.472Z,2.60
2023-04-16T00:58:45.209Z,2.40
2023-04-16T01:01:14.507Z,3.15
2023-04-16T01:03:46.027Z,2.85
2023-04-16T01:06:13.584Z,2.72
2023-04-16T01:08:40.825Z,2.95
2023-04-16T01:11:08.240Z,2.80
2023-04-16T01:13:39.302Z,2.85
2023-04-16T01:16:08.380Z,2.63
2023-04-16T01:18:36.689Z,2.65
2023-04-16T01:21:04.611Z,2.45
2023-04-16T01:23:32.663Z,2.87
2023-04-16T01:25:59.987Z,2.88
2023-04-16T01:28:27.320Z,2.72
2023-04-16T01:30:54.832Z,2.80
2023-04-16T01:33:51.475Z,3.13
2023-04-16T01:36:18.919Z,2.60
2023-04-16T01:38:46.452Z,3.10
2023-04-16T01:41:13.701Z,3.15
2023-04-16T01:43:42.547Z,3.33
2023-04-16T01:46:20.459Z,3.05
2023-04-16T01:48:48.373Z,3.60
2023-04-16T01:51:15.689Z,3.03
2023-04-16T01:53:42.936Z,3.63
2023-04-16T01:56:10.166Z,3.70
2023-04-16T01:58:37.028Z,4.53
2023-04-16T02:01:05.703Z,4.00
2023-04-16T02:03:33.329Z,3.90
2023-04-16T02:06:01.278Z,4.10
2023-04-16T02:08:29.408Z,4.47
2023-04-16T02:10:57.004Z,4.38
2023-04-16T02:13:26.131Z,4.77
2023-04-16T02:15:53.196Z,4.35
2023-04-16T02:18:29.740Z,3.70
2023-04-16T02:20:58.729Z,4.90
2023-04-16T02:23:26.063Z,4.20
2023-04-16T02:25:53.713Z,4.47
2023-04-16T02:28:21.197Z,4.38
2023-04-16T02:30:48.137Z,4.45
2023-04-16T02:33:17.761Z,4.20
2023-04-16T02:35:57.397Z,4.70
2023-04-16T02:38:24.972Z,4.10
2023-04-16T02:40:52.209Z,5.18
2023-04-16T02:43:19.728Z,5.93
2023-04-16T02:45:47.037Z,4.70
2023-04-16T02:48:14.309Z,5.00
2023-04-16T02:50:41.670Z,5.67
2023-04-16T02:53:10.484Z,5.25
2023-04-16T02:55:37.370Z,5.18
2023-04-16T02:58:04.621Z,4.70
2023-04-16T03:00:31.899Z,5.22
2023-04-16T03:02:59.676Z,4.97
2023-04-16T03:05:26.659Z,5.35
2023-04-16T03:07:56.710Z,5.47
2023-04-16T03:10:24.228Z,4.43
2023-04-16T03:12:51.498Z,4.40
2023-04-16T03:15:19.001Z,4.60
2023-04-16T03:17:46.234Z,5.10
2023-04-16T03:20:14.557Z,4.90
2023-04-16T03:22:41.641Z,5.32
2023-04-16T03:25:09.144Z,4.38
2023-04-16T03:27:36.742Z,4.37
2023-04-16T03:30:04.769Z,5.60
2023-04-16T03:32:34.140Z,5.07
2023-04-16T03:35:02.232Z,5.97
2023-04-16T03:37:29.582Z,5.50
2023-04-16T03:39:56.645Z,4.73
2023-04-16T03:42:23.859Z,4.60
2023-04-16T03:44:52.714Z,4.80
2023-04-16T03:47:21.730Z,5.53
2023-04-16T03:49:49.971Z,5.97
2023-04-16T03:52:18.547Z,4.90
2023-04-16T03:54:45.868Z,5.32
2023-04-16T03:57:26.346Z,4.88
2023-04-16T03:59:57.388Z,5.38
2023-04-16T04:02:27.316Z,5.63
2023-04-16T04:04:54.888Z,4.50
2023-04-16T04:07:21.786Z,5.55
2023-04-16T04:09:49.220Z,5.00
2023-04-16T04:12:16.498Z,5.25
2023-04-16T04:14:45.646Z,5.97
2023-04-16T04:17:12.505Z,5.70
2023-04-16T04:19:44.520Z,4.70
2023-04-16T04:22:18.749Z,6.05
2023-04-16T04:24:45.998Z,6.43
2023-04-16T04:27:13.217Z,6.93
2023-04-16T04:29:40.822Z,7.00
2023-04-16T04:32:08.155Z,5.97
2023-04-16T04:34:36.093Z,6.38
2023-04-16T04:37:04.032Z,6.35
2023-04-16T04:39:31.749Z,6.63
2023-04-16T04:41:59.421Z,7.00
2023-04-16T04:44:26.235Z,6.43
2023-04-16T04:46:53.655Z,6.85
2023-04-16T04:49:20.920Z,7.00
2023-04-16T04:51:48.463Z,7.30
2023-04-16T04:54:15.786Z,6.60
2023-04-16T04:56:45.808Z,7.05
2023-04-16T04:59:14.251Z,6.97
2023-04-16T05:01:42.138Z,7.53
2023-04-16T05:04:09.560Z,6.78
2023-04-16T05:06:36.537Z,8.13
2023-04-16T05:09:03.945Z,6.95
2023-04-16T05:11:30.947Z,8.20
2023-04-16T05:13:58.165Z,7.68
2023-04-16T05:16:25.450Z,8.45
2023-04-16T05:18:52.690Z,9.10
2023-04-16T05:21:19.926Z,7.75
2023-04-16T05:23:46.924Z,8.10
2023-04-16T05:26:14.156Z,8.15
2023-04-16T05:28:41.508Z,8.18
2023-04-16T05:31:08.440Z,7.17
2023-04-16T05:33:35.755Z,7.47
2023-04-16T05:36:03.136Z,7.97
2023-04-16T05:38:30.435Z,8.30
2023-04-16T05:40:58.234Z,9.30
2023-04-16T05:43:25.681Z,8.10
2023-04-16T05:45:52.511Z,8.18
2023-04-16T05:48:20.260Z,9.90
2023-04-16T05:50:47.570Z,8.57
2023-04-16T05:53:14.889Z,7.55
2023-04-16T05:55:42.202Z,9.13
2023-04-16T05:58:09.010Z,8.80
2023-04-16T06:00:36.566Z,8.50
2023-04-16T06:03:04.284Z,8.60
2023-04-16T06:05:31.757Z,8.75
2023-04-16T06:07:59.206Z,9.53
2023-04-16T06:10:26.447Z,10.32
2023-04-16T06:12:53.865Z,10.52
2023-04-16T06:15:21.218Z,8.63
2023-04-16T06:17:48.520Z,9.95
2023-04-16T06:20:15.922Z,9.40
2023-04-16T06:22:43.162Z,8.85
2023-04-16T06:25:10.552Z,31.42
2023-04-16T06:27:37.854Z,9.55
2023-04-16T06:30:05.303Z,9.93
2023-04-16T06:32:32.811Z,11.57
2023-04-16T06:35:00.173Z,10.65
2023-04-16T06:37:27.447Z,11.52
2023-04-16T06:39:54.846Z,9.30
2023-04-16T06:42:21.725Z,10.43
2023-04-16T06:44:49.001Z,7.43
2023-04-16T06:47:16.648Z,9.57
2023-04-16T06:49:43.936Z,9.18
2023-04-16T06:52:12.004Z,9.20
2023-04-16T06:54:39.321Z,7.90
2023-04-16T06:57:06.541Z,8.77
2023-04-16T06:59:33.344Z,8.95
2023-04-16T07:02:00.336Z,9.18
2023-04-16T07:04:27.465Z,7.88
2023-04-16T07:06:54.722Z,9.77
2023-04-16T07:09:21.561Z,8.60
2023-04-16T07:11:49.038Z,8.30
2023-04-16T07:14:16.319Z,8.55
2023-04-16T07:16:43.758Z,10.07
2023-04-16T07:19:11.366Z,8.68
2023-04-16T07:21:38.813Z,8.57
2023-04-16T07:24:06.131Z,8.40
2023-04-16T07:26:33.384Z,8.82
2023-04-16T07:29:00.384Z,9.38
2023-04-16T07:31:27.564Z,10.35
2023-04-16T07:33:55.030Z,9.57
2023-04-16T07:36:21.912Z,10.60
2023-04-16T07:38:49.108Z,16.73
2023-04-16T07:41:17.269Z,29.73
2023-04-16T07:43:44.474Z,12.27
2023-04-16T07:46:11.800Z,11.03
2023-04-16T07:48:39.112Z,13.82
2023-04-16T07:51:06.506Z,12.38
2023-04-16T07:53:34.016Z,10.07
2023-04-16T07:56:01.313Z,9.15
2023-04-16T07:58:28.512Z,9.80
2023-04-16T08:00:55.919Z,16.40
2023-04-16T08:03:23.109Z,9.70
2023-04-16T08:05:50.722Z,9.43
2023-04-16T08:08:17.946Z,9.68
2023-04-16T08:10:45.399Z,9.00
2023-04-16T08:13:12.668Z,8.50
2023-04-16T08:15:40.039Z,7.22
2023-04-16T08:18:12.777Z,10.23
2023-04-16T08:20:40.131Z,9.32
2023-04-16T08:23:07.472Z,8.27
2023-04-16T08:25:34.718Z,7.88
2023-04-16T08:28:02.001Z,7.50
2023-04-16T08:30:29.234Z,7.78
2023-04-16T08:32:56.612Z,7.38
2023-04-16T08:35:23.987Z,7.03
2023-04-16T08:37:50.846Z,6.47
2023-04-16T08:40:18.347Z,6.90
2023-04-16T08:43:05.660Z,8.38
2023-04-16T08:45:35.039Z,7.82
2023-04-16T08:48:05.100Z,6.17
2023-04-16T08:50:34.570Z,6.68
2023-04-16T08:53:06.755Z,6.60
2023-04-16T08:55:39.225Z,6.63
2023-04-16T08:58:22.709Z,7.28
2023-04-16T09:00:50.223Z,6.57
2023-04-16T09:03:17.309Z,8.35
2023-04-16T09:05:44.882Z,11.88
2023-04-16T09:08:12.455Z,7.22
2023-04-16T09:10:40.158Z,6.80
2023-04-16T09:13:09.343Z,7.13
2023-04-16T09:15:36.686Z,6.82
2023-04-16T09:18:04.052Z,7.38
2023-04-16T09:20:31.338Z,6.30
2023-04-16T09:22:58.664Z,6.30
2023-04-16T09:25:26.460Z,5.67
2023-04-16T09:27:53.735Z,6.00
2023-04-16T09:30:25.598Z,5.97
2023-04-16T09:33:11.528Z,5.43
2023-04-16T09:35:51.935Z,5.82
2023-04-16T09:38:19.996Z,6.03
2023-04-16T09:40:47.670Z,5.63
2023-04-16T09:43:16.437Z,6.28
2023-04-16T09:45:54.174Z,5.43
2023-04-16T09:48:32.120Z,5.00
2023-04-16T09:51:00.356Z,5.77
2023-04-16T09:53:29.226Z,5.13
2023-04-16T09:56:05.385Z,5.55
2023-04-16T09:58:32.907Z,5.20
2023-04-16T10:01:05.884Z,5.20
2023-04-16T10:03:34.612Z,6.57
2023-04-16T10:06:18.130Z,7.85
2023-04-16T10:08:53.074Z,6.43
2023-04-16T10:11:21.201Z,5.97
2023-04-16T10:13:48.466Z,5.78
2023-04-16T10:16:16.008Z,5.17
2023-04-16T10:18:44.982Z,5.18
2023-04-16T10:21:12.941Z,5.57
2023-04-16T10:23:40.974Z,5.05
2023-04-16T10:26:08.406Z,6.50
2023-04-16T10:28:36.324Z,8.27
2023-04-16T10:31:09.210Z,7.57
2023-04-16T10:33:41.096Z,8.35
2023-04-16T10:36:13.791Z,6.35
2023-04-16T10:38:56.646Z,8.25
2023-04-16T10:41:23.628Z,5.90
2023-04-16T10:43:51.281Z,6.55
2023-04-16T10:46:18.881Z,6.90
2023-04-16T10:48:50.266Z,6.07
2023-04-16T10:51:27.764Z,7.32
2023-04-16T10:53:56.570Z,7.30
2023-04-16T10:56:31.432Z,7.20
2023-04-16T10:58:58.450Z,6.32
2023-04-16T11:01:45.307Z,6.60
2023-04-16T11:04:21.939Z,6.50
2023-04-16T11:07:19.394Z,6.67
2023-04-16T11:10:00.562Z,5.80
2023-04-16T11:12:32.735Z,6.97
2023-04-16T11:15:02.062Z,7.55
2023-04-16T11:17:51.679Z,6.70
2023-04-16T11:20:21.087Z,7.10
2023-04-16T11:22:49.486Z,7.50
2023-04-16T11:25:26.838Z,8.77
2023-04-16T11:27:54.962Z,6.22
2023-04-16T11:30:36.254Z,7.28
2023-04-16T11:33:11.444Z,7.43
2023-04-16T11:35:39.600Z,7.88
2023-04-16T11:38:07.331Z,8.05
2023-04-16T11:40:34.854Z,8.18
2023-04-16T11:43:19.970Z,7.80
2023-04-16T11:45:56.466Z,10.37
2023-04-16T11:48:23.766Z,8.50
2023-04-16T11:50:58.047Z,8.85
2023-04-16T11:53:25.694Z,7.88
2023-04-16T11:55:52.938Z,10.10
2023-04-16T11:58:22.310Z,10.30
2023-04-16T12:00:53.416Z,8.60
2023-04-16T12:03:38.557Z,8.32
2023-04-16T12:06:09.696Z,8.45
2023-04-16T12:08:36.966Z,8.32
2023-04-16T12:11:04.499Z,10.03
2023-04-16T12:13:39.660Z,8.48
2023-04-16T12:16:19.481Z,8.80
2023-04-16T12:19:00.134Z,9.65
2023-04-16T12:21:39.765Z,8.52
2023-04-16T12:24:08.313Z,8.13
2023-04-16T12:26:39.116Z,8.20
2023-04-16T12:29:35.138Z,7.15
2023-04-16T12:32:02.973Z,7.22
2023-04-16T12:34:48.153Z,7.57
2023-04-16T12:37:16.602Z,7.70
2023-04-16T12:39:43.993Z,7.70
2023-04-16T12:42:12.754Z,8.02
2023-04-16T12:44:40.041Z,8.55
2023-04-16T12:47:07.350Z,10.75
2023-04-16T12:49:34.729Z,7.93
2023-04-16T12:52:02.667Z,8.68
2023-04-16T12:54:31.235Z,8.68
2023-04-16T12:56:58.452Z,8.10
2023-04-16T12:59:25.267Z,7.22
2023-04-16T13:01:52.707Z,9.03
2023-04-16T13:04:21.544Z,16.58
2023-04-16T13:06:49.950Z,9.32
2023-04-16T13:09:18.058Z,8.18
2023-04-16T13:11:46.141Z,7.80
2023-04-16T13:14:13.464Z,8.13
2023-04-16T13:16:40.688Z,8.60
2023-04-16T13:19:07.958Z,9.75
2023-04-16T13:21:35.365Z,8.40
2023-04-16T13:24:02.599Z,9.30
2023-04-16T13:26:29.969Z,8.87
2023-04-16T13:28:57.246Z,8.85
2023-04-16T13:31:24.557Z,8.00
2023-04-16T13:33:51.555Z,8.48
2023-04-16T13:36:18.832Z,8.98
2023-04-16T13:38:46.240Z,8.50
2023-04-16T13:41:13.569Z,9.40
2023-04-16T13:43:40.351Z,9.25
2023-04-16T13:46:07.802Z,8.80
2023-04-16T13:48:34.748Z,9.48
2023-04-16T13:51:02.567Z,11.10
2023-04-16T13:53:29.802Z,8.90
2023-04-16T13:55:56.853Z,8.95
2023-04-16T13:58:23.893Z,8.63
2023-04-16T14:00:51.211Z,8.30
2023-04-16T14:03:18.533Z,9.67
2023-04-16T14:05:45.511Z,9.85
2023-04-16T14:08:14.771Z,10.15
2023-04-16T14:10:42.148Z,10.15
2023-04-16T14:13:09.388Z,12.52
2023-04-16T14:15:36.636Z,10.93
2023-04-16T14:18:04.193Z,9.27
2023-04-16T14:20:31.525Z,10.30
2023-04-16T14:22:58.567Z,9.00
2023-04-16T14:25:26.192Z,11.40
2023-04-16T14:27:53.309Z,10.17
2023-04-16T14:30:20.314Z,10.40
2023-04-16T14:32:47.599Z,9.88
2023-04-16T14:35:14.894Z,10.23
2023-04-16T14:37:42.526Z,14.57
2023-04-16T14:40:11.123Z,12.30
2023-04-16T14:42:39.427Z,10.85
2023-04-16T14:45:07.328Z,8.82
2023-04-16T14:47:34.886Z,9.07
2023-04-16T14:50:02.663Z,9.93
2023-04-16T14:52:31.940Z,9.10
2023-04-16T14:54:59.230Z,9.18
2023-04-16T14:57:26.779Z,11.20
2023-04-16T14:59:54.168Z,11.63
2023-04-16T15:02:22.122Z,26.13
2023-04-16T15:04:49.582Z,11.43
2023-04-16T15:07:16.531Z,10.05
2023-04-16T15:09:43.818Z,10.32
2023-04-16T15:12:10.787Z,10.05
2023-04-16T15:14:38.046Z,9.20
2023-04-16T15:17:05.644Z,9.20
2023-04-16T15:19:32.978Z,10.00
2023-04-16T15:21:59.825Z,10.23
2023-04-16T15:24:27.041Z,9.27
2023-04-16T15:26:54.233Z,9.60
2023-04-16T15:29:21.782Z,10.53
2023-04-16T15:31:48.639Z,10.60
2023-04-16T15:34:15.984Z,9.20
2023-04-16T15:36:43.281Z,9.63
2023-04-16T15:39:11.239Z,9.13
2023-04-16T15:41:50.259Z,8.70
2023-04-16T15:44:24.756Z,9.50
2023-04-16T15:46:52.084Z,9.70
2023-04-16T15:49:18.998Z,9.85
2023-04-16T15:51:46.258Z,9.20
2023-04-16T15:54:13.542Z,8.73
2023-04-16T15:56:40.626Z,8.68
2023-04-16T15:59:08.212Z,9.35
2023-04-16T16:01:35.887Z,9.30
2023-04-16T16:04:08.086Z,9.23
2023-04-16T16:06:37.905Z,10.87
2023-04-16T16:09:05.396Z,9.23
2023-04-16T16:11:32.812Z,10.20
2023-04-16T16:14:03.234Z,8.73
2023-04-16T16:16:30.732Z,11.77
2023-04-16T16:18:57.653Z,11.93
2023-04-16T16:21:24.902Z,10.05
2023-04-16T16:23:51.920Z,8.90
2023-04-16T16:26:20.576Z,9.80
2023-04-16T16:28:48.007Z,11.15
2023-04-16T16:31:15.299Z,11.93
2023-04-16T16:33:42.588Z,11.73
2023-04-16T16:36:12.579Z,13.32
2023-04-16T16:38:42.538Z,11.18
2023-04-16T16:41:09.866Z,9.38
2023-04-16T16:43:36.738Z,8.73
2023-04-16T16:46:05.792Z,8.40
2023-04-16T16:48:32.980Z,8.82
2023-04-16T16:51:00.604Z,9.55
2023-04-16T16:53:27.493Z,11.60
2023-04-16T16:55:54.321Z,15.80
2023-04-16T16:58:21.825Z,11.50
2023-04-16T17:00:49.216Z,11.27
2023-04-16T17:03:17.025Z,10.13
2023-04-16T17:05:43.973Z,12.93
2023-04-16T17:08:11.978Z,11.60
2023-04-16T17:10:39.177Z,10.50
2023-04-16T17:13:06.668Z,11.23
2023-04-16T17:15:33.981Z,11.88
2023-04-16T17:18:01.373Z,11.82
2023-04-16T17:20:28.440Z,10.90
2023-04-16T17:22:55.779Z,11.32
2023-04-16T17:25:23.176Z,11.75
2023-04-16T17:27:50.162Z,10.13
2023-04-16T17:30:17.401Z,9.75
2023-04-16T17:32:44.824Z,11.17
2023-04-16T17:35:13.755Z,10.13
2023-04-16T17:37:40.861Z,12.02
2023-04-16T17:40:08.191Z,10.00
2023-04-16T17:42:35.764Z,13.70
2023-04-16T17:45:03.288Z,11.40
2023-04-16T17:47:30.682Z,11.80
2023-04-16T17:49:58.040Z,11.40
2023-04-16T17:52:25.791Z,15.52
2023-04-16T17:54:56.499Z,13.50
2023-04-16T17:57:23.700Z,13.00
2023-04-16T17:59:51.006Z,11.32
2023-04-16T18:02:18.575Z,12.60
2023-04-16T18:04:46.692Z,11.65
2023-04-16T18:07:14.053Z,12.50
2023-04-16T18:09:41.627Z,11.03
2023-04-16T18:12:09.015Z,12.25
2023-04-16T18:14:37.147Z,14.75
2023-04-16T18:17:06.368Z,15.75
2023-04-16T18:19:35.499Z,12.65
2023-04-16T18:22:02.548Z,11.80
2023-04-16T18:24:29.837Z,13.10
2023-04-16T18:26:57.149Z,13.52
2023-04-16T18:29:25.468Z,12.90
2023-04-16T18:31:55.120Z,13.15
2023-04-16T18:34:23.476Z,12.23
2023-04-16T18:36:50.739Z,12.35
2023-04-16T18:39:18.105Z,13.80
2023-04-16T18:41:47.726Z,13.52
2023-04-16T18:44:16.091Z,15.60
2023-04-16T18:46:43.464Z,12.20
2023-04-16T18:49:11.024Z,11.95
2023-04-16T18:51:38.448Z,13.27
2023-04-16T18:54:05.807Z,12.75
2023-04-16T18:56:33.155Z,14.07
2023-04-16T18:59:00.449Z,11.37
2023-04-16T19:01:27.746Z,15.52
2023-04-16T19:03:56.043Z,13.25
2023-04-16T19:06:22.906Z,12.90
2023-04-16T19:08:50.445Z,13.73
2023-04-16T19:11:17.814Z,15.60
2023-04-16T19:13:44.820Z,12.73
2023-04-16T19:16:12.291Z,15.40
2023-04-16T19:18:39.476Z,13.80
2023-04-16T19:21:07.354Z,13.93
2023-04-16T19:23:34.720Z,14.80
2023-04-16T19:26:01.751Z,13.57
2023-04-16T19:28:29.163Z,13.98
2023-04-16T19:30:56.437Z,14.30
2023-04-16T19:33:23.673Z,14.95
2023-04-16T19:35:50.927Z,14.53
2023-04-16T19:38:17.799Z,13.82
2023-04-16T19:40:46.627Z,12.93
2023-04-16T19:43:14.156Z,13.90
2023-04-16T19:45:52.182Z,13.88
2023-04-16T19:48:20.022Z,13.97
2023-04-16T19:50:47.350Z,15.27
2023-04-16T19:53:15.805Z,12.57
2023-04-16T19:55:43.038Z,12.98
2023-04-16T19:58:10.595Z,14.48
2023-04-16T20:00:40.788Z,12.93
2023-04-16T20:03:08.252Z,14.82
2023-04-16T20:05:35.991Z,14.77
2023-04-16T20:08:03.687Z,13.75
2023-04-16T20:10:31.631Z,16.00
2023-04-16T20:12:59.256Z,15.63
2023-04-16T20:15:26.300Z,15.13
2023-04-16T20:17:53.458Z,16.73
2023-04-16T20:20:22.698Z,15.43
2023-04-16T20:22:50.557Z,15.63
2023-04-16T20:25:21.725Z,16.60
2023-04-16T20:27:49.143Z,16.83
2023-04-16T20:30:16.738Z,16.05
2023-04-16T20:32:44.200Z,15.43
2023-04-16T20:35:11.744Z,16.27
2023-04-16T20:37:42.202Z,15.73
2023-04-16T20:40:09.627Z,15.88
2023-04-16T20:42:36.905Z,14.95
2023-04-16T20:45:04.911Z,15.57
2023-04-16T20:47:34.497Z,15.02
2023-04-16T20:50:02.732Z,14.33
2023-04-16T20:52:30.702Z,16.88
2023-04-16T20:54:57.878Z,16.77
2023-04-16T20:57:28.158Z,15.65
2023-04-16T20:59:55.505Z,14.18
2023-04-16T21:02:24.207Z,16.13
2023-04-16T21:04:51.921Z,16.15
2023-04-16T21:07:18.791Z,15.52
2023-04-16T21:09:46.397Z,15.13
2023-04-16T21:12:13.651Z,16.05
2023-04-16T21:14:41.075Z,16.70
2023-04-16T21:17:07.894Z,15.85
2023-04-16T21:19:35.115Z,16.83
2023-04-16T21:22:02.905Z,16.40
2023-04-16T21:24:30.300Z,15.52
2023-04-16T21:26:57.297Z,15.90
2023-04-16T21:29:24.158Z,15.93
2023-04-16T21:31:51.624Z,17.33
2023-04-16T21:34:19.412Z,17.23
2023-04-16T21:36:46.666Z,17.05
2023-04-16T21:39:14.964Z,16.80
2023-04-16T21:41:42.208Z,16.92
2023-04-16T21:44:09.075Z,16.65
2023-04-16T21:46:36.133Z,16.10
2023-04-16T21:49:03.804Z,14.68
2023-04-16T21:51:30.626Z,16.87
2023-04-16T21:53:57.880Z,16.38
2023-04-16T21:56:25.825Z,16.33
2023-04-16T21:58:52.704Z,14.95
2023-04-16T22:01:20.019Z,17.30
2023-04-16T22:03:50.581Z,15.80
2023-04-16T22:06:18.358Z,16.92
2023-04-16T22:08:45.589Z,17.20
2023-04-16T22:11:12.619Z,16.52
2023-04-16T22:13:42.347Z,17.13
2023-04-16T22:16:11.497Z,15.97
2023-04-16T22:18:41.079Z,17.02
2023-04-16T22:21:07.925Z,16.25
2023-04-16T22:23:35.325Z,16.88
2023-04-16T22:26:02.624Z,16.02
2023-04-16T22:28:29.876Z,16.50
2023-04-16T22:30:57.315Z,17.48
2023-04-16T22:33:24.759Z,17.20
2023-04-16T22:35:51.813Z,16.58
2023-04-16T22:38:19.057Z,16.17
2023-04-16T22:40:48.791Z,16.17
2023-04-16T22:43:17.605Z,16.40
2023-04-16T22:45:46.284Z,16.58
2023-04-16T22:48:13.909Z,16.52
2023-04-16T22:50:46.091Z,16.70
2023-04-16T22:53:13.300Z,16.20
2023-04-16T22:55:40.956Z,16.27
2023-04-16T22:58:08.176Z,16.08
2023-04-16T23:00:35.512Z,15.73
2023-04-16T23:03:02.936Z,16.98
2023-04-16T23:05:29.879Z,16.30
2023-04-16T23:07:57.077Z,16.15
2023-04-16T23:10:24.381Z,17.25
2023-04-16T23:12:51.736Z,16.50
2023-04-16T23:15:19.064Z,16.55
2023-04-16T23:17:46.685Z,15.53
2023-04-16T23:20:14.676Z,16.02
2023-04-16T23:22:42.064Z,16.98
2023-04-16T23:25:09.597Z,16.77
2023-04-16T23:27:37.268Z,17.48
2023-04-16T23:30:05.312Z,18.20
2023-04-16T23:32:33.992Z,17.55
2023-04-16T23:35:01.527Z,17.63
2023-04-16T23:37:28.865Z,19.02
2023-04-16T23:39:56.134Z,18.83
2023-04-16T23:42:23.386Z,18.07
2023-04-16T23:44:50.710Z,19.27
2023-04-16T23:47:18.193Z,17.17
2023-04-16T23:49:45.702Z,17.33
2023-04-16T23:52:12.568Z,16.52
2023-04-16T23:54:39.775Z,15.70
2023-04-16T23:57:07.142Z,16.40
2023-04-16T23:59:34.393Z,17.33
